createdAt,value
2023-02-27T00:01:52.311Z,44.82
2023-02-27T00:04:22.800Z,45.24
2023-02-27T00:06:53.864Z,44.73
2023-02-27T00:09:24.332Z,44.82
2023-02-27T00:11:54.449Z,44.90
2023-02-27T00:14:25.156Z,44.66
2023-02-27T00:16:58.400Z,45.15
2023-02-27T00:19:29.596Z,45.07
2023-02-27T00:21:59.962Z,45.45
2023-02-27T00:24:30.550Z,45.14
2023-02-27T00:27:01.770Z,45.11
2023-02-27T00:29:32.440Z,45.07
2023-02-27T00:32:04.992Z,44.95
2023-02-27T00:34:35.597Z,45.33
2023-02-27T00:37:06.464Z,45.32
2023-02-27T00:39:37.802Z,45.30
2023-02-27T00:42:08.433Z,45.29
2023-02-27T00:44:38.998Z,45.31
2023-02-27T00:47:13.257Z,45.44
2023-02-27T00:49:43.621Z,44.99
2023-02-27T00:52:13.673Z,45.14
2023-02-27T00:54:44.703Z,45.06
2023-02-27T00:57:15.584Z,45.39
2023-02-27T00:59:47.032Z,45.13
2023-02-27T01:02:19.121Z,45.45
2023-02-27T01:04:50.601Z,45.04
2023-02-27T01:07:21.019Z,45.05
2023-02-27T01:09:51.226Z,45.56
2023-02-27T01:12:21.689Z,45.12
2023-02-27T01:14:52.035Z,45.56
2023-02-27T01:17:24.051Z,45.13
2023-02-27T01:19:54.946Z,45.71
2023-02-27T01:22:25.486Z,45.32
2023-02-27T01:24:55.999Z,45.43
2023-02-27T01:27:26.529Z,45.45
2023-02-27T01:29:56.936Z,45.48
2023-02-27T01:32:29.004Z,45.38
2023-02-27T01:34:59.084Z,45.67
2023-02-27T01:37:29.251Z,45.60
2023-02-27T01:39:59.050Z,45.51
2023-02-27T01:42:31.863Z,45.37
2023-02-27T01:45:31.618Z,45.08
2023-02-27T01:48:14.658Z,45.36
2023-02-27T01:50:53.076Z,45.50
2023-02-27T01:53:26.524Z,45.77
2023-02-27T01:56:01.013Z,45.67
2023-02-27T01:58:31.659Z,45.91
2023-02-27T02:01:02.537Z,45.65
2023-02-27T02:03:43.135Z,45.44
2023-02-27T02:06:14.909Z,45.52
2023-02-27T02:08:50.481Z,45.39
2023-02-27T02:11:23.521Z,45.59
2023-02-27T02:14:00.098Z,45.97
2023-02-27T02:17:02.795Z,45.94
2023-02-27T02:20:21.194Z,45.74
2023-02-27T02:23:45.756Z,45.72
2023-02-27T02:26:46.910Z,45.52
2023-02-27T02:30:20.488Z,46.16
2023-02-27T02:34:08.379Z,46.10
2023-02-27T02:37:23.157Z,45.77
2023-02-27T02:40:18.586Z,46.09
2023-02-27T02:42:59.584Z,45.96
2023-02-27T02:45:36.203Z,46.18
2023-02-27T02:48:20.930Z,45.94
2023-02-27T02:51:00.268Z,45.93
2023-02-27T02:53:44.089Z,46.13
2023-02-27T02:56:27.896Z,46.14
2023-02-27T02:59:08.140Z,45.83
2023-02-27T03:01:46.281Z,46.07
2023-02-27T03:04:26.551Z,46.28
2023-02-27T03:07:06.640Z,46.10
2023-02-27T03:09:43.817Z,46.15
2023-02-27T03:12:23.783Z,46.04
2023-02-27T03:15:05.468Z,46.19
2023-02-27T03:17:45.687Z,46.40
2023-02-27T03:20:25.096Z,45.98
2023-02-27T03:23:02.459Z,46.04
2023-02-27T03:25:35.949Z,46.20
2023-02-27T03:28:14.189Z,45.95
2023-02-27T03:30:56.355Z,46.29
2023-02-27T03:33:32.812Z,46.10
2023-02-27T03:36:14.222Z,46.24
2023-02-27T03:38:54.732Z,46.28
2023-02-27T03:41:34.417Z,46.27
2023-02-27T03:44:13.970Z,46.72
2023-02-27T03:46:44.919Z,46.44
2023-02-27T03:49:16.108Z,46.50
2023-02-27T03:51:48.057Z,46.04
2023-02-27T03:54:24.227Z,46.42
2023-02-27T03:57:01.937Z,46.35
2023-02-27T03:59:35.980Z,46.14
2023-02-27T04:02:06.888Z,46.28
2023-02-27T04:04:38.331Z,46.13
2023-02-27T04:07:23.167Z,46.47
2023-02-27T04:10:34.719Z,46.03
2023-02-27T04:13:41.788Z,46.49
2023-02-27T04:17:04.220Z,45.97
2023-02-27T04:20:11.373Z,46.27
2023-02-27T04:22:49.216Z,46.36
2023-02-27T04:25:45.217Z,46.05
2023-02-27T04:28:20.758Z,46.00
2023-02-27T04:31:04.790Z,45.94
2023-02-27T04:33:50.763Z,46.47
2023-02-27T04:36:33.715Z,46.31
2023-02-27T04:39:10.684Z,46.33
2023-02-27T04:41:47.219Z,46.41
2023-02-27T04:44:20.625Z,46.12
2023-02-27T04:46:53.936Z,46.14
2023-02-27T04:49:31.324Z,46.34
2023-02-27T04:52:10.854Z,46.63
2023-02-27T04:54:48.402Z,46.54
2023-02-27T04:57:25.240Z,46.56
2023-02-27T05:00:00.196Z,46.55
2023-02-27T05:02:36.866Z,46.37
2023-02-27T05:05:17.354Z,46.39
2023-02-27T05:07:54.577Z,46.43
2023-02-27T05:10:35.307Z,46.76
2023-02-27T05:13:13.041Z,46.99
2023-02-27T05:15:51.279Z,47.09
2023-02-27T05:18:24.010Z,46.84
2023-02-27T05:21:18.045Z,46.84
2023-02-27T05:24:05.340Z,47.22
2023-02-27T05:26:55.310Z,47.02
2023-02-27T05:29:37.959Z,47.29
2023-02-27T05:32:29.188Z,47.02
2023-02-27T05:35:17.728Z,47.18
2023-02-27T05:37:57.934Z,47.21
2023-02-27T05:40:37.435Z,47.47
2023-02-27T05:43:13.359Z,47.32
2023-02-27T05:45:48.972Z,47.28
2023-02-27T05:48:27.052Z,47.27
2023-02-27T05:50:59.768Z,47.32
2023-02-27T05:53:43.512Z,47.02
2023-02-27T05:56:19.970Z,47.18
2023-02-27T05:58:59.221Z,46.74
2023-02-27T06:01:29.735Z,47.44
2023-02-27T06:03:59.733Z,46.92
2023-02-27T06:06:33.874Z,47.25
2023-02-27T06:09:05.680Z,47.25
2023-02-27T06:11:36.508Z,47.15
2023-02-27T06:14:07.114Z,46.97
2023-02-27T06:16:39.584Z,47.37
2023-02-27T06:19:09.652Z,47.28
2023-02-27T06:21:40.230Z,46.84
2023-02-27T06:24:12.946Z,46.85
2023-02-27T06:26:43.419Z,47.02
2023-02-27T06:29:13.217Z,47.23
2023-02-27T06:31:43.642Z,47.09
2023-02-27T06:34:13.998Z,47.07
2023-02-27T06:36:44.466Z,47.00
2023-02-27T06:39:16.440Z,47.08
2023-02-27T06:41:46.651Z,47.00
2023-02-27T06:44:19.397Z,47.09
2023-02-27T06:46:49.532Z,46.87
2023-02-27T06:49:20.525Z,46.63
2023-02-27T06:51:50.864Z,46.64
2023-02-27T06:54:23.622Z,46.56
2023-02-27T06:56:53.712Z,46.34
2023-02-27T06:59:24.442Z,46.48
2023-02-27T07:01:54.941Z,46.43
2023-02-27T07:04:25.487Z,46.46
2023-02-27T07:07:34.898Z,46.26
2023-02-27T07:09:47.860Z,46.28
2023-02-27T07:12:18.616Z,46.13
2023-02-27T07:14:48.553Z,46.29
2023-02-27T07:17:20.336Z,46.08
2023-02-27T07:19:50.695Z,46.07
2023-02-27T07:22:21.146Z,46.03
2023-02-27T07:24:54.068Z,45.82
2023-02-27T07:27:23.897Z,45.82
2023-02-27T07:29:54.874Z,45.45
2023-02-27T07:32:25.072Z,45.42
2023-02-27T07:34:55.792Z,45.48
2023-02-27T07:37:27.925Z,45.14
2023-02-27T07:40:00.501Z,45.13
2023-02-27T07:42:30.568Z,45.22
2023-02-27T07:45:01.050Z,44.84
2023-02-27T07:47:32.190Z,44.79
2023-02-27T07:50:03.357Z,44.41
2023-02-27T07:52:34.688Z,44.66
2023-02-27T07:55:06.901Z,44.62
2023-02-27T07:57:37.204Z,44.69
2023-02-27T08:00:10.782Z,44.24
2023-02-27T08:02:41.677Z,44.20
2023-02-27T08:05:12.183Z,44.53
2023-02-27T08:07:42.212Z,44.60
2023-02-27T08:10:17.146Z,44.39
2023-02-27T08:12:47.600Z,43.82
2023-02-27T08:15:17.976Z,44.32
2023-02-27T08:17:49.491Z,44.33
2023-02-27T08:20:22.952Z,43.89
2023-02-27T08:22:52.863Z,44.30
2023-02-27T08:25:24.739Z,44.15
2023-02-27T08:27:55.333Z,44.06
2023-02-27T08:30:25.861Z,43.77
2023-02-27T08:32:56.633Z,43.66
2023-02-27T08:35:27.183Z,44.01
2023-02-27T08:37:57.372Z,43.52
2023-02-27T08:40:29.399Z,43.70
2023-02-27T08:42:59.796Z,43.89
2023-02-27T08:45:30.444Z,43.92
2023-02-27T08:48:00.966Z,43.67
2023-02-27T08:50:30.892Z,43.84
2023-02-27T08:53:01.216Z,43.26
2023-02-27T08:55:33.225Z,43.18
2023-02-27T08:58:03.632Z,42.98
2023-02-27T09:00:34.954Z,43.53
2023-02-27T09:03:05.514Z,43.56
2023-02-27T09:05:37.977Z,43.28
2023-02-27T09:08:08.396Z,43.10
2023-02-27T09:10:40.835Z,42.92
2023-02-27T09:13:10.840Z,42.71
2023-02-27T09:15:40.922Z,43.04
2023-02-27T09:18:11.497Z,42.50
2023-02-27T09:20:42.930Z,42.80
2023-02-27T09:23:13.523Z,42.11
2023-02-27T09:25:46.080Z,42.59
2023-02-27T09:28:16.242Z,41.96
2023-02-27T09:30:46.542Z,42.58
2023-02-27T09:33:17.327Z,42.53
2023-02-27T09:35:48.108Z,42.28
2023-02-27T09:38:18.590Z,41.99
2023-02-27T09:40:53.812Z,41.97
2023-02-27T09:43:32.260Z,42.42
2023-02-27T09:46:05.486Z,42.29
2023-02-27T09:48:42.033Z,42.30
2023-02-27T09:51:12.690Z,42.09
2023-02-27T09:53:47.856Z,42.13
2023-02-27T09:56:28.678Z,42.14
2023-02-27T09:59:07.416Z,42.26
2023-02-27T10:01:46.078Z,41.81
2023-02-27T10:04:33.950Z,42.01
2023-02-27T10:07:18.597Z,42.23
2023-02-27T10:10:05.428Z,41.97
2023-02-27T10:12:57.485Z,42.08
2023-02-27T10:15:33.383Z,42.22
2023-02-27T10:18:25.561Z,41.98
2023-02-27T10:21:03.497Z,41.90
2023-02-27T10:23:43.766Z,41.61
2023-02-27T10:26:23.140Z,41.57
2023-02-27T10:28:56.085Z,41.94
2023-02-27T10:31:32.710Z,41.59
2023-02-27T10:34:04.972Z,41.41
2023-02-27T10:36:37.084Z,41.55
2023-02-27T10:39:14.217Z,41.79
2023-02-27T10:41:47.399Z,41.66
2023-02-27T10:44:20.959Z,41.52
2023-02-27T10:46:52.333Z,41.97
2023-02-27T10:49:24.676Z,42.03
2023-02-27T10:52:11.949Z,41.61
2023-02-27T10:54:43.243Z,41.81
2023-02-27T10:57:31.307Z,41.81
2023-02-27T11:00:08.570Z,41.58
2023-02-27T11:02:43.417Z,41.74
2023-02-27T11:05:27.766Z,41.68
2023-02-27T11:08:00.368Z,42.24
2023-02-27T11:10:31.721Z,42.34
2023-02-27T11:13:06.046Z,42.02
2023-02-27T11:15:39.754Z,41.97
2023-02-27T11:18:29.777Z,42.37
2023-02-27T11:21:21.043Z,42.26
2023-02-27T11:24:01.214Z,42.15
2023-02-27T11:26:36.709Z,42.35
2023-02-27T11:29:18.125Z,42.46
2023-02-27T11:31:56.579Z,42.49
2023-02-27T11:34:40.319Z,42.50
2023-02-27T11:37:29.407Z,42.38
2023-02-27T11:40:17.336Z,42.30
2023-02-27T11:42:52.430Z,42.57
2023-02-27T11:46:12.168Z,42.58
2023-02-27T11:48:32.388Z,42.60
2023-02-27T11:51:33.240Z,42.68
2023-02-27T11:54:23.888Z,42.36
2023-02-27T11:56:58.349Z,42.41
2023-02-27T11:59:44.324Z,42.57
2023-02-27T12:02:24.846Z,42.57
2023-02-27T12:05:02.332Z,42.85
2023-02-27T12:07:44.013Z,42.54
2023-02-27T12:10:21.872Z,42.82
2023-02-27T12:12:58.511Z,42.71
2023-02-27T12:15:39.173Z,42.60
2023-02-27T12:18:20.206Z,42.60
2023-02-27T12:21:00.110Z,42.51
2023-02-27T12:23:39.010Z,42.94
2023-02-27T12:26:17.000Z,42.77
2023-02-27T12:29:00.505Z,42.69
2023-02-27T12:31:52.291Z,42.62
2023-02-27T12:34:29.717Z,42.74
2023-02-27T12:37:07.136Z,42.73
2023-02-27T12:39:37.277Z,42.95
2023-02-27T12:43:06.235Z,43.01
2023-02-27T12:46:15.565Z,43.00
2023-02-27T12:49:11.357Z,43.05
2023-02-27T12:51:56.641Z,43.18
2023-02-27T12:54:46.723Z,42.82
2023-02-27T12:57:38.336Z,42.96
2023-02-27T13:00:18.112Z,42.99
2023-02-27T13:03:08.085Z,42.77
2023-02-27T13:05:45.635Z,42.88
2023-02-27T13:08:58.656Z,42.64
2023-02-27T13:11:49.236Z,42.92
2023-02-27T13:14:35.984Z,42.96
2023-02-27T13:17:18.031Z,42.84
2023-02-27T13:19:54.900Z,43.00
2023-02-27T13:22:39.725Z,42.86
2023-02-27T13:25:17.396Z,42.96
2023-02-27T13:27:55.113Z,42.71
2023-02-27T13:30:32.057Z,42.79
2023-02-27T13:33:19.206Z,42.80
2023-02-27T13:36:05.881Z,43.05
2023-02-27T13:38:45.978Z,42.91
2023-02-27T13:41:41.930Z,42.90
2023-02-27T13:44:43.272Z,42.83
2023-02-27T13:48:01.396Z,42.87
2023-02-27T13:50:55.006Z,43.00
2023-02-27T13:53:25.553Z,43.00
2023-02-27T13:56:23.659Z,42.75
2023-02-27T13:58:57.569Z,43.01
2023-02-27T14:01:31.929Z,43.37
2023-02-27T14:04:09.013Z,43.19
2023-02-27T14:06:49.233Z,43.11
2023-02-27T14:09:25.254Z,42.97
2023-02-27T14:12:02.773Z,43.19
2023-02-27T14:14:50.800Z,43.10
2023-02-27T14:17:45.564Z,43.29
2023-02-27T14:20:38.439Z,43.31
2023-02-27T14:23:27.854Z,42.99
2023-02-27T14:26:17.810Z,43.51
2023-02-27T14:28:56.336Z,43.21
2023-02-27T14:31:32.943Z,43.17
2023-02-27T14:34:07.187Z,43.15
2023-02-27T14:36:45.200Z,43.10
2023-02-27T14:39:26.560Z,43.09
2023-02-27T14:42:19.284Z,43.17
2023-02-27T14:44:52.218Z,43.15
2023-02-27T14:47:33.196Z,43.08
2023-02-27T14:50:08.489Z,43.13
2023-02-27T14:52:45.993Z,43.02
2023-02-27T14:55:28.270Z,43.02
2023-02-27T14:58:02.652Z,43.12
2023-02-27T15:00:38.445Z,43.13
2023-02-27T15:03:22.687Z,43.17
2023-02-27T15:06:01.512Z,43.03
2023-02-27T15:08:35.097Z,42.64
2023-02-27T15:11:06.931Z,42.96
2023-02-27T15:13:42.454Z,42.99
2023-02-27T15:16:31.252Z,42.90
2023-02-27T15:19:14.017Z,42.86
2023-02-27T15:21:50.353Z,42.88
2023-02-27T15:24:35.290Z,43.27
2023-02-27T15:27:18.906Z,43.00
2023-02-27T15:29:53.981Z,42.70
2023-02-27T15:32:31.213Z,42.59
2023-02-27T15:35:05.249Z,43.00
2023-02-27T15:37:38.031Z,42.56
2023-02-27T15:40:15.791Z,42.76
2023-02-27T15:42:47.654Z,42.88
2023-02-27T15:45:24.170Z,42.82
2023-02-27T15:47:55.437Z,42.66
2023-02-27T15:50:31.051Z,42.88
2023-02-27T15:53:12.402Z,42.60
2023-02-27T15:55:49.549Z,42.71
2023-02-27T15:58:26.813Z,42.80
2023-02-27T16:01:04.262Z,42.73
2023-02-27T16:03:40.452Z,42.99
2023-02-27T16:06:18.527Z,42.71
2023-02-27T16:08:56.354Z,42.77
2023-02-27T16:11:30.027Z,42.77
2023-02-27T16:14:01.122Z,42.79
2023-02-27T16:16:36.543Z,42.93
2023-02-27T16:19:27.239Z,42.80
2023-02-27T16:22:09.461Z,42.81
2023-02-27T16:24:41.888Z,42.94
2023-02-27T16:27:22.466Z,42.87
2023-02-27T16:29:54.020Z,42.79
2023-02-27T16:32:31.741Z,42.75
2023-02-27T16:35:09.434Z,42.97
2023-02-27T16:37:43.698Z,43.04
2023-02-27T16:40:21.149Z,42.72
2023-02-27T16:42:52.849Z,42.85
2023-02-27T16:45:26.764Z,43.04
2023-02-27T16:47:59.034Z,43.03
2023-02-27T16:50:33.854Z,42.90
2023-02-27T16:53:04.698Z,43.06
2023-02-27T16:55:42.667Z,43.02
2023-02-27T16:58:17.865Z,43.18
2023-02-27T17:00:47.639Z,43.23
2023-02-27T17:03:18.533Z,42.92
2023-02-27T17:05:49.608Z,43.12
2023-02-27T17:08:23.203Z,42.74
2023-02-27T17:10:55.356Z,43.18
2023-02-27T17:13:26.551Z,42.95
2023-02-27T17:16:07.639Z,43.09
2023-02-27T17:18:39.922Z,42.79
2023-02-27T17:21:10.840Z,43.07
2023-02-27T17:23:41.251Z,43.15
2023-02-27T17:26:14.243Z,42.80
2023-02-27T17:28:44.540Z,43.05
2023-02-27T17:31:23.409Z,42.92
2023-02-27T17:33:54.580Z,43.17
2023-02-27T17:36:27.114Z,42.90
2023-02-27T17:38:58.574Z,43.46
2023-02-27T17:41:32.740Z,43.11
2023-02-27T17:44:03.717Z,43.17
2023-02-27T17:46:34.004Z,43.08
2023-02-27T17:49:05.036Z,43.29
2023-02-27T17:51:36.652Z,43.30
2023-02-27T17:54:09.434Z,43.18
2023-02-27T17:56:41.548Z,43.35
2023-02-27T17:59:12.129Z,43.18
2023-02-27T18:01:42.748Z,43.34
2023-02-27T18:04:13.324Z,43.36
2023-02-27T18:06:44.501Z,43.62
2023-02-27T18:09:14.467Z,43.50
2023-02-27T18:11:46.490Z,43.44
2023-02-27T18:14:17.538Z,43.37
2023-02-27T18:16:48.017Z,43.37
2023-02-27T18:19:19.064Z,43.56
2023-02-27T18:21:49.231Z,43.59
2023-02-27T18:24:20.257Z,43.40
2023-02-27T18:26:52.841Z,43.47
2023-02-27T18:29:23.765Z,43.67
2023-02-27T18:31:55.407Z,43.52
2023-02-27T18:34:30.815Z,43.61
2023-02-27T18:37:00.765Z,43.66
2023-02-27T18:39:31.473Z,43.62
2023-02-27T18:42:06.749Z,43.75
2023-02-27T18:44:39.455Z,43.69
2023-02-27T18:47:10.256Z,43.73
2023-02-27T18:49:41.032Z,43.53
2023-02-27T18:52:12.238Z,43.82
2023-02-27T18:54:43.727Z,43.79
2023-02-27T18:57:15.806Z,44.05
2023-02-27T18:59:47.869Z,43.56
2023-02-27T19:02:22.512Z,43.85
2023-02-27T19:04:53.286Z,43.98
2023-02-27T19:07:25.981Z,43.82
2023-02-27T19:09:57.904Z,43.97
2023-02-27T19:12:32.047Z,43.72
2023-02-27T19:15:03.792Z,43.87
2023-02-27T19:17:34.397Z,43.89
2023-02-27T19:20:06.808Z,43.89
2023-02-27T19:22:37.085Z,43.83
2023-02-27T19:25:09.127Z,43.99
2023-02-27T19:27:45.228Z,43.65
2023-02-27T19:30:17.769Z,43.75
2023-02-27T19:32:47.573Z,43.79
2023-02-27T19:35:18.278Z,43.98
2023-02-27T19:37:54.949Z,43.84
2023-02-27T19:40:25.560Z,43.87
2023-02-27T19:42:58.065Z,43.46
2023-02-27T19:45:28.764Z,43.83
2023-02-27T19:47:59.427Z,43.78
2023-02-27T19:50:30.697Z,43.54
2023-02-27T19:53:01.868Z,43.75
2023-02-27T19:55:32.612Z,43.54
2023-02-27T19:58:21.029Z,43.41
2023-02-27T20:00:51.814Z,43.60
2023-02-27T20:03:24.996Z,43.51
2023-02-27T20:05:56.425Z,43.53
2023-02-27T20:08:27.107Z,43.30
2023-02-27T20:10:59.736Z,43.29
2023-02-27T20:13:33.150Z,43.40
2023-02-27T20:16:06.195Z,43.33
2023-02-27T20:18:38.945Z,43.40
2023-02-27T20:21:15.541Z,43.17
2023-02-27T20:23:48.455Z,43.25
2023-02-27T20:26:26.971Z,43.23
2023-02-27T20:29:04.229Z,43.27
2023-02-27T20:31:39.555Z,43.23
2023-02-27T20:34:11.817Z,43.23
2023-02-27T20:36:43.711Z,43.07
2023-02-27T20:39:14.754Z,42.80
2023-02-27T20:41:46.186Z,43.01
2023-02-27T20:44:20.071Z,42.87
2023-02-27T20:46:50.745Z,42.96
2023-02-27T20:49:22.455Z,42.87
2023-02-27T20:51:53.295Z,42.78
2023-02-27T20:54:24.070Z,42.86
2023-02-27T20:56:54.996Z,42.77
2023-02-27T20:59:28.039Z,42.63
2023-02-27T21:02:00.245Z,42.53
2023-02-27T21:04:43.025Z,42.63
2023-02-27T21:07:16.259Z,42.54
2023-02-27T21:09:47.514Z,42.32
2023-02-27T21:12:18.269Z,42.31
2023-02-27T21:14:50.878Z,42.43
2023-02-27T21:17:21.351Z,42.40
2023-02-27T21:19:52.334Z,42.24
2023-02-27T21:22:24.395Z,42.39
2023-02-27T21:24:55.386Z,42.27
2023-02-27T21:27:26.272Z,42.09
2023-02-27T21:29:58.741Z,41.82
2023-02-27T21:32:29.433Z,41.90
2023-02-27T21:35:00.154Z,41.97
2023-02-27T21:37:30.554Z,41.81
2023-02-27T21:40:04.527Z,41.54
2023-02-27T21:42:35.297Z,41.77
2023-02-27T21:45:10.049Z,41.63
2023-02-27T21:47:40.500Z,41.39
2023-02-27T21:50:18.517Z,41.58
2023-02-27T21:52:48.909Z,41.50
2023-02-27T21:55:19.478Z,41.65
2023-02-27T21:57:50.464Z,41.53
2023-02-27T22:00:28.029Z,41.56
2023-02-27T22:02:59.697Z,41.45
2023-02-27T22:05:31.386Z,40.99
2023-02-27T22:08:03.620Z,41.33
2023-02-27T22:10:46.256Z,41.41
2023-02-27T22:13:17.337Z,41.14
2023-02-27T22:15:49.511Z,41.29
2023-02-27T22:18:20.251Z,41.05
2023-02-27T22:20:50.932Z,41.13
2023-02-27T22:23:21.162Z,41.31
2023-02-27T22:26:19.072Z,40.94
2023-02-27T22:28:52.238Z,40.81
2023-02-27T22:31:28.276Z,40.71
2023-02-27T22:34:04.210Z,40.51
2023-02-27T22:36:38.940Z,40.90
2023-02-27T22:39:09.908Z,40.63
2023-02-27T22:41:43.600Z,40.60
2023-02-27T22:44:18.714Z,40.48
2023-02-27T22:46:53.644Z,40.06
2023-02-27T22:49:26.962Z,40.76
2023-02-27T22:51:57.988Z,40.39
2023-02-27T22:54:28.376Z,40.37
2023-02-27T22:56:58.548Z,40.18
2023-02-27T22:59:29.739Z,40.21
2023-02-27T23:02:01.254Z,40.15
2023-02-27T23:04:42.849Z,40.13
2023-02-27T23:07:14.258Z,40.20
2023-02-27T23:09:44.546Z,40.12
2023-02-27T23:12:15.729Z,39.91
2023-02-27T23:14:47.760Z,40.13
2023-02-27T23:17:20.788Z,39.94
2023-02-27T23:19:51.059Z,39.89
2023-02-27T23:22:21.914Z,39.83
2023-02-27T23:24:52.958Z,39.72
2023-02-27T23:27:26.149Z,39.67
2023-02-27T23:29:57.274Z,39.92
2023-02-27T23:32:29.862Z,39.72
2023-02-27T23:35:00.385Z,39.38
2023-02-27T23:37:30.411Z,39.63
2023-02-27T23:40:02.405Z,39.65
2023-02-27T23:42:33.786Z,39.56
2023-02-27T23:45:06.488Z,39.46
2023-02-27T23:47:45.044Z,39.39
2023-02-27T23:50:15.813Z,39.59
2023-02-27T23:52:45.624Z,39.25
2023-02-27T23:55:16.157Z,39.34
2023-02-27T23:57:47.794Z,39.39
